LROP Airport Information

Runway Information
Runway 08L Length 11484 ft width 148 ft
Elevation 313 ft Threshold 0 ft Heading 84
Runway 26R Length 11484 ft Width 148 ft
Elevation 303 ft Threshold 0 ft Heading 264
Runway 08R Length 11484 ft width 148 ft
Elevation 314 ft Threshold 0 ft Heading 84
Runway 26L Length 11484 ft Width 148 ft
Elevation 303 ft Threshold 0 ft Heading 264
Airport Frequencies
Type APP Name BUCURESTI Frequency 118.25 MHZ
Type ATIS Name OTOPENI AT Frequency 118.5 MHZ
Type GND Name OTOPENI GN Frequency 121.7 MHZ
Type TWR Name OTOPENI TW Frequency 120.9 MHZ
Airport Navaids
Type VOR-DME Name Floresti Frequency 112200 KHZ
Type NDB Name Otopeni Frequency 349 KHZ
Type NDB Name Otopeni Frequency 268 KHZ
Type NDB Name Otopeni Frequency 370 KHZ
Type VOR-DME Name Strejnic Frequency 113200 KHZ
Airport Weather Information & NOTAM
ADDS - METARS form results

(0014 UTC 18 January 2018)
 
METAR text: LROP 180000Z 10005KT 2000 -RA BR SCT004 OVC005 00/M01 Q0991 REDZ R88/29//95 TEMPO 0800 -RADZ FG BKN002
Conditions at: LROP (BUCHAREST/OTOPEN, RO) observed 0000 UTC 18 January 2018
Temperature: 0.0°C (32°F)
Dewpoint: -1.0°C (30°F) [RH = 93%]
Pressure (altimeter): 29.26 inches Hg (991.0 mb)
Winds: from the E (100 degrees) at 6 MPH (5 knots; 2.6 m/s)
Visibility: 1.24 miles (2.00 km)
Ceiling: 500 feet AGL
Clouds: scattered clouds at 400 feet AGL
overcast cloud deck at 500 feet AGL
Weather: -RA BR  (light rain, mist)

METAR text: LROP 172330Z 09005KT 2000 DZ BKN005 OVC007 00/M01 Q0991 R88/29//95 TEMPO 1500 DZ BR
Conditions at: LROP (BUCHAREST/OTOPEN, RO) observed 2330 UTC 17 January 2018
Temperature: 0.0°C (32°F)
Dewpoint: -1.0°C (30°F) [RH = 93%]
Pressure (altimeter): 29.26 inches Hg (991.0 mb)
Winds: from the E (90 degrees) at 6 MPH (5 knots; 2.6 m/s)
Visibility: 1.24 miles (2.00 km)
Ceiling: 500 feet AGL
Clouds: broken clouds at 500 feet AGL
overcast cloud deck at 700 feet AGL
Weather: DZ  (drizzle)